Terminal Aerodrome Forecast
Issued by NWS Jackson, MS

Home | Current Version | Previous Version | Text Only | Print | Product List | Glossary On
Versions: 1 2 3 4 5 6 7 8 9 10 11 12 13 14 15
000
FTUS44 KJAN 170559
TAFHBG
TAF
KHBG 170559Z 1706/1806 00000KT P6SM FEW090
     FM170800 00000KT 6SM BR SCT003
     FM171200 00000KT 5SM BR FEW050 SCT090
     FM171300 00000KT P6SM SCT090=

USA.gov is the U.S. government's official web portal to all federal, state and local government web resources and services.